Time,TemperatureF,DewpointF,PressureIn,WindDirection,WindDirectionDegrees,WindSpeedMPH,WindSpeedGustMPH,Humidity,HourlyPrecipIn,Conditions,Clouds,dailyrainin,SoftwareType,DateUTC
2013-06-20 00:04:00,63.4,62.8,30.08,West,271,0.0,0.0,98,0.00,,,0.31,Wunderground v.1.15,2013-06-20 04:04:00,
2013-06-20 00:09:00,63.3,62.7,30.08,West,271,0.0,0.0,98,0.00,,,0.31,Wunderground v.1.15,2013-06-20 04:09:00,
2013-06-20 00:14:00,63.2,62.6,30.08,West,271,0.0,0.0,98,0.00,,,0.31,Wunderground v.1.15,2013-06-20 04:14:00,
2013-06-20 00:19:00,63.2,62.6,30.08,West,271,0.0,0.0,98,0.00,,,0.31,Wunderground v.1.15,2013-06-20 04:19:00,
2013-06-20 00:29:00,62.9,62.3,30.08,West,271,0.0,0.0,98,0.00,,,0.31,Wunderground v.1.15,2013-06-20 04:29:00,
2013-06-20 00:39:00,62.8,62.2,30.07,West,271,0.0,0.0,98,0.00,,,0.31,Wunderground v.1.15,2013-06-20 04:39:00,
2013-06-20 00:49:00,62.7,62.1,30.08,West,271,0.0,0.0,98,0.00,,,0.31,Wunderground v.1.15,2013-06-20 04:49:00,
2013-06-20 00:54:00,62.7,62.1,30.07,West,271,0.0,0.0,98,0.00,,,0.31,Wunderground v.1.15,2013-06-20 04:54:00,
2013-06-20 01:04:00,62.6,62.0,30.07,West,271,0.0,2.0,98,0.00,,,0.31,Wunderground v.1.15,2013-06-20 05:04:00,
2013-06-20 01:14:00,62.4,61.8,30.07,West,271,0.0,2.0,98,0.00,,,0.31,Wunderground v.1.15,2013-06-20 05:14:00,
2013-06-20 01:24:00,62.2,61.6,30.07,West,271,0.0,2.0,98,0.00,,,0.31,Wunderground v.1.15,2013-06-20 05:24:00,
2013-06-20 01:34:00,62.0,61.4,30.07,West,271,0.0,2.0,98,0.00,,,0.31,Wunderground v.1.15,2013-06-20 05:34:00,
2013-06-20 01:44:00,61.7,61.1,30.07,West,271,0.0,2.0,98,0.00,,,0.31,Wunderground v.1.15,2013-06-20 05:44:00,
2013-06-20 01:54:00,61.4,60.8,30.07,West,271,0.0,2.0,98,0.00,,,0.00,Wunderground v.1.15,2013-06-20 05:54:00,
2013-06-20 01:59:00,61.3,60.7,30.07,West,271,0.0,2.0,98,0.00,,,0.00,Wunderground v.1.15,2013-06-20 05:59:00,
2013-06-20 02:04:00,61.2,60.6,30.07,West,271,0.0,2.0,98,0.00,,,0.00,Wunderground v.1.15,2013-06-20 06:04:00,
2013-06-20 02:14:00,61.0,60.4,30.06,West,271,0.0,0.0,98,0.00,,,0.00,Wunderground v.1.15,2013-06-20 06:14:00,
2013-06-20 02:24:00,61.1,60.8,30.07,West,271,0.0,0.0,99,0.00,,,0.00,Wunderground v.1.15,2013-06-20 06:24:00,
2013-06-20 02:34:00,61.1,60.8,30.07,West,271,0.0,0.0,99,0.00,,,0.00,Wunderground v.1.15,2013-06-20 06:34:00,
2013-06-20 02:44:00,60.8,60.5,30.07,West,271,0.0,0.0,99,0.00,,,0.00,Wunderground v.1.15,2013-06-20 06:44:00,
2013-06-20 02:54:00,60.6,60.3,30.07,West,271,0.0,0.0,99,0.00,,,0.00,Wunderground v.1.15,2013-06-20 06:54:00,
2013-06-20 03:04:00,60.7,60.4,30.08,West,271,0.0,0.0,99,0.00,,,0.00,Wunderground v.1.15,2013-06-20 07:04:00,
2013-06-20 03:14:00,60.8,60.5,30.08,West,271,0.0,0.0,99,0.00,,,0.00,Wunderground v.1.15,2013-06-20 07:14:00,
2013-06-20 03:24:00,60.9,60.6,30.08,West,271,0.0,0.0,99,0.00,,,0.00,Wunderground v.1.15,2013-06-20 07:24:00,
2013-06-20 03:34:00,60.7,60.4,30.07,West,271,0.0,0.0,99,0.00,,,0.00,Wunderground v.1.15,2013-06-20 07:34:00,
2013-06-20 03:44:00,60.7,60.4,30.07,West,271,0.0,0.0,99,0.00,,,0.00,Wunderground v.1.15,2013-06-20 07:44:00,
2013-06-20 03:54:00,60.7,60.4,30.07,West,271,0.0,0.0,99,0.00,,,0.00,Wunderground v.1.15,2013-06-20 07:54:00,
2013-06-20 03:59:00,60.7,60.4,30.07,West,271,0.0,0.0,99,0.00,,,0.00,Wunderground v.1.15,2013-06-20 07:59:00,
2013-06-20 04:04:00,60.7,60.4,30.08,West,271,0.0,0.0,99,0.00,,,0.00,Wunderground v.1.15,2013-06-20 08:04:00,
2013-06-20 04:14:00,60.5,60.2,30.08,West,271,0.0,0.0,99,0.00,,,0.00,Wunderground v.1.15,2013-06-20 08:14:00,
2013-06-20 04:24:00,60.4,60.1,30.09,West,271,0.0,0.0,99,0.00,,,0.00,Wunderground v.1.15,2013-06-20 08:24:00,
2013-06-20 04:34:00,60.4,60.1,30.09,West,271,0.0,0.0,99,0.00,,,0.00,Wunderground v.1.15,2013-06-20 08:34:00,
2013-06-20 04:44:00,60.5,60.2,30.09,West,271,0.0,0.0,99,0.00,,,0.00,Wunderground v.1.15,2013-06-20 08:44:00,
2013-06-20 04:49:00,60.6,60.3,30.09,West,271,0.0,0.0,99,0.00,,,0.00,Wunderground v.1.15,2013-06-20 08:49:00,
2013-06-20 04:59:00,60.5,60.2,30.09,West,271,0.0,0.0,99,0.00,,,0.00,Wunderground v.1.15,2013-06-20 08:59:00,
2013-06-20 05:04:00,60.5,60.2,30.09,West,271,0.0,0.0,99,0.00,,,0.00,Wunderground v.1.15,2013-06-20 09:04:00,
2013-06-20 05:14:00,60.5,60.2,30.10,West,271,0.0,0.0,99,0.00,,,0.00,Wunderground v.1.15,2013-06-20 09:14:00,
2013-06-20 05:24:00,60.7,60.4,30.10,West,271,0.0,0.0,99,0.00,,,0.00,Wunderground v.1.15,2013-06-20 09:24:00,
2013-06-20 05:34:00,60.7,60.4,30.10,West,271,0.0,0.0,99,0.00,,,0.00,Wunderground v.1.15,2013-06-20 09:34:00,
2013-06-20 05:44:00,60.7,60.4,30.10,West,271,0.0,0.0,99,0.00,,,0.00,Wunderground v.1.15,2013-06-20 09:44:00,
2013-06-20 05:49:00,60.7,60.4,30.11,West,271,0.0,0.0,99,0.00,,,0.00,Wunderground v.1.15,2013-06-20 09:49:00,
2013-06-20 05:59:00,60.5,60.2,30.11,West,271,0.0,0.0,99,0.00,,,0.00,Wunderground v.1.15,2013-06-20 09:59:00,
2013-06-20 06:04:00,60.5,60.2,30.11,West,271,0.0,0.0,99,0.00,,,0.00,Wunderground v.1.15,2013-06-20 10:04:00,
2013-06-20 08:45:00,61.7,61.4,30.16,West,271,0.0,0.0,99,0.00,,,0.00,Wunderground v.1.15,2013-06-20 12:45:00,
2013-06-20 08:50:00,61.8,61.5,30.16,West,271,0.0,0.0,99,0.00,,,0.00,Wunderground v.1.15,2013-06-20 12:50:00,
2013-06-20 09:00:00,62.1,62.1,30.16,West,271,0.0,0.0,100,0.00,,,0.00,Wunderground v.1.15,2013-06-20 13:00:00,
2013-06-20 09:05:00,62.3,62.3,30.17,West,271,0.0,0.0,100,0.00,,,0.00,Wunderground v.1.15,2013-06-20 13:05:00,
2013-06-20 09:15:00,62.5,62.5,30.17,West,271,0.0,0.0,100,0.00,,,0.00,Wunderground v.1.15,2013-06-20 13:15:00,
2013-06-20 09:20:00,62.6,62.6,30.17,West,271,0.0,0.0,100,0.00,,,0.00,Wunderground v.1.15,2013-06-20 13:20:00,
2013-06-20 09:30:00,62.9,62.9,30.17,West,271,0.0,0.0,100,0.00,,,0.00,Wunderground v.1.15,2013-06-20 13:30:00,
2013-06-20 09:40:00,63.2,63.2,30.17,West,271,0.0,0.0,100,0.00,,,0.00,Wunderground v.1.15,2013-06-20 13:40:00,
2013-06-20 09:45:00,63.5,63.5,30.17,West,271,0.0,0.0,100,0.00,,,0.00,Wunderground v.1.15,2013-06-20 13:45:00,
2013-06-20 09:55:00,63.8,63.8,30.17,West,271,0.0,0.0,100,0.00,,,0.00,Wunderground v.1.15,2013-06-20 13:55:00,
2013-06-20 10:05:00,64.3,64.3,30.17,West,269,0.0,1.0,100,0.00,,,0.00,Wunderground v.1.15,2013-06-20 14:05:00,
2013-06-20 10:15:00,64.8,64.8,30.16,WSW,258,0.0,2.0,100,0.00,,,0.00,Wunderground v.1.15,2013-06-20 14:15:00,
2013-06-20 10:25:00,65.2,65.2,30.16,SW,231,0.0,1.0,100,0.00,,,0.00,Wunderground v.1.15,2013-06-20 14:25:00,
2013-06-20 10:35:00,65.3,65.0,30.16,SW,231,0.0,1.0,99,0.00,,,0.00,Wunderground v.1.15,2013-06-20 14:35:00,
2013-06-20 10:45:00,65.4,64.8,30.16,SW,231,0.0,1.0,98,0.00,,,0.00,Wunderground v.1.15,2013-06-20 14:45:00,
2013-06-20 10:50:00,65.6,64.7,30.17,SW,231,0.0,1.0,97,0.00,,,0.00,Wunderground v.1.15,2013-06-20 14:50:00,
2013-06-20 11:00:00,66.1,64.9,30.17,SW,231,0.0,1.0,96,0.00,,,0.00,Wunderground v.1.15,2013-06-20 15:00:00,
2013-06-20 11:05:00,66.2,65.0,30.17,SW,231,0.0,2.0,96,0.00,,,0.00,Wunderground v.1.15,2013-06-20 15:05:00,
2013-06-20 11:15:00,66.5,64.7,30.17,SW,231,0.0,2.0,94,0.00,,,0.00,Wunderground v.1.15,2013-06-20 15:15:00,
2013-06-20 11:25:00,67.0,65.2,30.17,SW,231,0.0,2.0,94,0.00,,,0.00,Wunderground v.1.15,2013-06-20 15:25:00,
2013-06-20 11:30:00,67.3,65.2,30.17,SW,231,0.0,2.0,93,0.00,,,0.00,Wunderground v.1.15,2013-06-20 15:30:00,
2013-06-20 11:35:00,67.6,65.5,30.17,SW,231,0.0,2.0,93,0.00,,,0.00,Wunderground v.1.15,2013-06-20 15:35:00,
2013-06-20 11:45:00,67.9,65.5,30.17,SW,231,0.0,2.0,92,0.00,,,0.00,Wunderground v.1.15,2013-06-20 15:45:00,
2013-06-20 11:55:00,68.0,65.3,30.17,SW,231,0.0,2.0,91,0.00,,,0.00,Wunderground v.1.15,2013-06-20 15:55:00,
2013-06-20 12:05:00,67.9,65.2,30.17,SW,231,0.0,2.0,91,0.00,,,0.00,Wunderground v.1.15,2013-06-20 16:05:00,
2013-06-20 12:15:00,67.9,65.2,30.17,SW,231,0.0,1.0,91,0.00,,,0.00,Wunderground v.1.15,2013-06-20 16:15:00,
2013-06-20 12:25:00,68.0,65.3,30.17,SW,231,0.0,1.0,91,0.00,,,0.00,Wunderground v.1.15,2013-06-20 16:25:00,
2013-06-20 12:35:00,68.2,65.5,30.16,SW,231,0.0,1.0,91,0.00,,,0.00,Wunderground v.1.15,2013-06-20 16:35:00,
2013-06-20 12:45:00,68.2,65.2,30.16,SW,231,0.0,1.0,90,0.00,,,0.00,Wunderground v.1.15,2013-06-20 16:45:00,
2013-06-20 12:55:00,68.5,65.8,30.16,SW,231,0.0,1.0,91,0.00,,,0.00,Wunderground v.1.15,2013-06-20 16:55:00,
2013-06-20 13:05:00,70.0,65.6,30.16,SSW,200,1.0,1.0,86,0.00,,,0.00,Wunderground v.1.15,2013-06-20 17:05:00,
2013-06-20 13:15:00,70.0,65.3,30.16,SSW,211,0.0,1.0,85,0.00,,,0.00,Wunderground v.1.15,2013-06-20 17:15:00,
2013-06-20 13:20:00,70.0,65.6,30.16,SSW,211,0.0,1.0,86,0.00,,,0.00,Wunderground v.1.15,2013-06-20 17:20:00,
2013-06-20 13:30:00,71.3,66.9,30.16,SSW,211,0.0,1.0,86,0.00,,,0.00,Wunderground v.1.15,2013-06-20 17:30:00,
2013-06-20 13:40:00,71.8,67.7,30.15,SSW,211,0.0,1.0,87,0.00,,,0.00,Wunderground v.1.15,2013-06-20 17:40:00,
2013-06-20 13:50:00,72.9,66.7,30.15,SSW,207,0.0,1.0,81,0.00,,,0.00,Wunderground v.1.15,2013-06-20 17:50:00,
2013-06-20 14:00:00,72.7,67.2,30.15,WSW,253,0.0,1.0,83,0.00,,,0.00,Wunderground v.1.15,2013-06-20 18:00:00,
2013-06-20 14:05:00,72.6,66.8,30.15,WSW,252,0.0,4.0,82,0.00,,,0.00,Wunderground v.1.15,2013-06-20 18:05:00,
2013-06-20 14:15:00,73.5,67.3,30.14,SW,218,0.0,4.0,81,0.00,,,0.00,Wunderground v.1.15,2013-06-20 18:15:00,
2013-06-20 14:25:00,74.4,66.7,30.14,SSW,207,0.0,4.0,77,0.00,,,0.00,Wunderground v.1.15,2013-06-20 18:25:00,
2013-06-20 14:35:00,74.1,66.4,30.14,WSW,242,0.0,4.0,77,0.00,,,0.00,Wunderground v.1.15,2013-06-20 18:35:00,
2013-06-20 14:45:00,73.8,66.9,30.14,SSW,195,0.0,4.0,79,0.00,,,0.00,Wunderground v.1.15,2013-06-20 18:45:00,
2013-06-20 14:50:00,74.2,67.6,30.14,WNW,301,0.0,4.0,80,0.00,,,0.00,Wunderground v.1.15,2013-06-20 18:50:00,
2013-06-20 15:00:00,75.4,69.2,30.13,NNW,336,1.0,1.0,81,0.00,,,0.00,Wunderground v.1.15,2013-06-20 19:00:00,
2013-06-20 15:05:00,75.8,68.8,30.13,NNW,336,0.0,6.0,79,0.00,,,0.00,Wunderground v.1.15,2013-06-20 19:05:00,
2013-06-20 15:15:00,74.9,66.8,30.13,West,265,0.0,6.0,76,0.00,,,0.00,Wunderground v.1.15,2013-06-20 19:15:00,
2013-06-20 15:25:00,75.1,68.1,30.13,South,186,0.0,6.0,79,0.00,,,0.00,Wunderground v.1.15,2013-06-20 19:25:00,
2013-06-20 15:35:00,75.4,67.7,30.13,WSW,240,0.0,6.0,77,0.00,,,0.00,Wunderground v.1.15,2013-06-20 19:35:00,
2013-06-20 15:45:00,75.5,67.4,30.12,SSW,208,0.0,6.0,76,0.00,,,0.00,Wunderground v.1.15,2013-06-20 19:45:00,
2013-06-20 15:55:00,75.6,66.7,30.12,NW,315,1.0,6.0,74,0.00,,,0.00,Wunderground v.1.15,2013-06-20 19:55:00,
2013-06-20 16:00:00,75.8,66.9,30.12,SW,227,1.0,1.0,74,0.00,,,0.00,Wunderground v.1.15,2013-06-20 20:00:00,
2013-06-20 16:05:00,75.9,67.0,30.12,South,191,1.0,9.0,74,0.00,,,0.00,Wunderground v.1.15,2013-06-20 20:05:00,
2013-06-20 16:15:00,75.5,66.6,30.12,SSW,202,0.0,9.0,74,0.00,,,0.00,Wunderground v.1.15,2013-06-20 20:15:00,
2013-06-20 16:25:00,74.4,66.3,30.12,SSW,213,1.0,9.0,76,0.00,,,0.00,Wunderground v.1.15,2013-06-20 20:25:00,
2013-06-20 16:35:00,74.7,65.9,30.12,SSW,196,1.0,9.0,74,0.00,,,0.00,Wunderground v.1.15,2013-06-20 20:35:00,
2013-06-20 16:45:00,75.2,67.1,30.12,SW,220,0.0,9.0,76,0.00,,,0.00,Wunderground v.1.15,2013-06-20 20:45:00,
2013-06-20 16:55:00,75.3,67.2,30.12,WSW,250,1.0,9.0,76,0.00,,,0.00,Wunderground v.1.15,2013-06-20 20:55:00,
2013-06-20 17:05:00,74.6,66.1,30.12,ESE,115,0.0,10.0,75,0.00,,,0.00,Wunderground v.1.15,2013-06-20 21:05:00,
2013-06-20 17:15:00,73.5,66.2,30.12,SW,235,0.0,10.0,78,0.00,,,0.00,Wunderground v.1.15,2013-06-20 21:15:00,
2013-06-20 17:25:00,74.0,67.4,30.12,WSW,244,0.0,10.0,80,0.00,,,0.00,Wunderground v.1.15,2013-06-20 21:25:00,
2013-06-20 17:35:00,74.9,67.9,30.11,SSW,205,0.0,10.0,79,0.00,,,0.00,Wunderground v.1.15,2013-06-20 21:35:00,
2013-06-20 17:45:00,75.5,67.0,30.12,SSW,200,0.0,10.0,75,0.00,,,0.00,Wunderground v.1.15,2013-06-20 21:45:00,
2013-06-20 17:55:00,75.1,66.2,30.11,WSW,237,0.0,10.0,74,0.00,,,0.00,Wunderground v.1.15,2013-06-20 21:55:00,
2013-06-20 18:00:00,75.0,66.1,30.11,SW,220,0.0,10.0,74,0.00,,,0.00,Wunderground v.1.15,2013-06-20 22:00:00,
2013-06-20 18:05:00,74.8,66.3,30.11,SSW,203,0.0,10.0,75,0.00,,,0.00,Wunderground v.1.15,2013-06-20 22:05:00,
2013-06-20 18:15:00,74.6,65.8,30.11,WSW,248,0.0,7.0,74,0.00,,,0.00,Wunderground v.1.15,2013-06-20 22:15:00,
2013-06-20 18:25:00,73.9,65.5,30.11,SW,227,0.0,7.0,75,0.00,,,0.00,Wunderground v.1.15,2013-06-20 22:25:00,
2013-06-20 18:35:00,73.4,66.5,30.12,SSW,198,0.0,7.0,79,0.00,,,0.00,Wunderground v.1.15,2013-06-20 22:35:00,
2013-06-20 18:40:00,73.5,66.9,30.12,SSW,199,0.0,7.0,80,0.00,,,0.00,Wunderground v.1.15,2013-06-20 22:40:00,
2013-06-20 18:50:00,73.3,65.7,30.12,WSW,247,0.0,7.0,77,0.00,,,0.00,Wunderground v.1.15,2013-06-20 22:50:00,
2013-06-20 19:00:00,72.6,65.7,30.12,West,266,0.0,7.0,79,0.00,,,0.00,Wunderground v.1.15,2013-06-20 23:00:00,
2013-06-20 19:05:00,72.2,65.3,30.12,West,266,0.0,7.0,79,0.00,,,0.00,Wunderground v.1.15,2013-06-20 23:05:00,
2013-06-20 19:15:00,71.5,64.6,30.12,SSW,197,0.0,6.0,79,0.00,,,0.00,Wunderground v.1.15,2013-06-20 23:15:00,
2013-06-20 19:25:00,70.9,64.1,30.12,SSW,198,0.0,6.0,79,0.00,,,0.00,Wunderground v.1.15,2013-06-20 23:25:00,
2013-06-20 19:35:00,70.5,64.7,30.13,WSW,246,0.0,6.0,82,0.00,,,0.00,Wunderground v.1.15,2013-06-20 23:35:00,
2013-06-20 19:45:00,70.4,65.0,30.13,WSW,248,0.0,6.0,83,0.00,,,0.00,Wunderground v.1.15,2013-06-20 23:45:00,
2013-06-20 19:50:00,70.4,65.0,30.13,WSW,248,0.0,6.0,83,0.00,,,0.00,Wunderground v.1.15,2013-06-20 23:50:00,
2013-06-20 19:55:00,70.3,64.9,30.13,WSW,243,0.0,6.0,83,0.00,,,0.00,Wunderground v.1.15,2013-06-20 23:55:00,
2013-06-20 20:05:00,70.2,64.4,30.13,WSW,242,0.0,6.0,82,0.00,,,0.00,Wunderground v.1.15,2013-06-21 00:05:00,
2013-06-20 20:15:00,69.7,64.3,30.13,WSW,243,0.0,1.0,83,0.00,,,0.00,Wunderground v.1.15,2013-06-21 00:15:00,
2013-06-20 20:25:00,69.3,64.3,30.13,WSW,242,0.0,1.0,84,0.00,,,0.00,Wunderground v.1.15,2013-06-21 00:25:00,
2013-06-20 20:30:00,69.0,64.3,30.13,WSW,243,0.0,1.0,85,0.00,,,0.00,Wunderground v.1.15,2013-06-21 00:30:00,
2013-06-20 20:45:00,68.3,63.9,30.14,WSW,243,0.0,1.0,86,0.00,,,0.00,Wunderground v.1.15,2013-06-21 00:45:00,
2013-06-20 20:55:00,67.8,63.8,30.15,West,273,0.0,1.0,87,0.00,,,0.00,Wunderground v.1.15,2013-06-21 00:55:00,
2013-06-20 21:05:00,67.4,63.4,30.15,West,269,0.0,2.0,87,0.00,,,0.00,Wunderground v.1.15,2013-06-21 01:05:00,
2013-06-20 21:15:00,67.1,63.4,30.15,WSW,255,0.0,5.0,88,0.00,,,0.00,Wunderground v.1.15,2013-06-21 01:15:00,
2013-06-20 21:25:00,67.1,63.4,30.16,SSW,211,0.0,2.0,88,0.00,,,0.00,Wunderground v.1.15,2013-06-21 01:25:00,
2013-06-20 21:35:00,67.0,63.3,30.15,SSW,211,0.0,2.0,88,0.00,,,0.00,Wunderground v.1.15,2013-06-21 01:35:00,
2013-06-20 21:45:00,66.9,63.6,30.15,SSW,213,0.0,2.0,89,0.00,,,0.00,Wunderground v.1.15,2013-06-21 01:45:00,
2013-06-20 21:55:00,66.8,63.5,30.16,SSW,213,0.0,2.0,89,0.00,,,0.00,Wunderground v.1.15,2013-06-21 01:55:00,
2013-06-20 22:05:00,66.8,63.5,30.16,SSE,149,0.0,5.0,89,0.00,,,0.00,Wunderground v.1.15,2013-06-21 02:05:00,
2013-06-20 22:15:00,66.7,63.4,30.16,WSW,241,0.0,5.0,89,0.00,,,0.00,Wunderground v.1.15,2013-06-21 02:15:00,
2013-06-20 22:25:00,66.7,63.4,30.17,South,187,0.0,5.0,89,0.00,,,0.00,Wunderground v.1.15,2013-06-21 02:25:00,
2013-06-20 22:35:00,66.6,63.3,30.17,South,187,0.0,5.0,89,0.00,,,0.00,Wunderground v.1.15,2013-06-21 02:35:00,
2013-06-20 22:45:00,66.6,63.3,30.17,SSW,208,0.0,5.0,89,0.00,,,0.00,Wunderground v.1.15,2013-06-21 02:45:00,
2013-06-20 22:55:00,66.7,63.4,30.17,SSW,208,0.0,5.0,89,0.00,,,0.00,Wunderground v.1.15,2013-06-21 02:55:00,
2013-06-20 23:05:00,66.6,63.6,30.17,SSW,209,0.0,5.0,90,0.00,,,0.00,Wunderground v.1.15,2013-06-21 03:05:00,
2013-06-20 23:15:00,66.5,63.2,30.17,SW,236,0.0,2.0,89,0.00,,,0.00,Wunderground v.1.15,2013-06-21 03:15:00,
2013-06-20 23:25:00,66.5,63.2,30.17,SW,236,0.0,2.0,89,0.00,,,0.00,Wunderground v.1.15,2013-06-21 03:25:00,
2013-06-20 23:35:00,66.5,63.2,30.18,SW,236,0.0,2.0,89,0.00,,,0.00,Wunderground v.1.15,2013-06-21 03:35:00,
2013-06-20 23:45:00,66.4,63.1,30.18,SW,236,0.0,2.0,89,0.00,,,0.00,Wunderground v.1.15,2013-06-21 03:45:00,
2013-06-20 23:55:00,66.4,63.1,30.18,SW,236,0.0,2.0,89,0.00,,,0.00,Wunderground v.1.15,2013-06-21 03:55:00,